sensor_id;sensor_type;location;lat;lon;timestamp;P1;durP1;ratioP1;P2;durP2;ratioP2
37907;SDS011;23740;51.550;6.846;2024-02-16T00:00:57;2.88;;;1.45;;
37907;SDS011;23740;51.550;6.846;2024-02-16T00:03:23;1.77;;;1.20;;
37907;SDS011;23740;51.550;6.846;2024-02-16T00:08:17;1.90;;;1.75;;
37907;SDS011;23740;51.550;6.846;2024-02-16T00:10:44;1.52;;;1.35;;
37907;SDS011;23740;51.550;6.846;2024-02-16T00:13:10;2.28;;;1.40;;
37907;SDS011;23740;51.550;6.846;2024-02-16T00:15:38;2.33;;;1.02;;
37907;SDS011;23740;51.550;6.846;2024-02-16T00:18:04;2.80;;;1.58;;
37907;SDS011;23740;51.550;6.846;2024-02-16T00:20:31;1.65;;;1.52;;
37907;SDS011;23740;51.550;6.846;2024-02-16T00:22:58;3.35;;;1.85;;
37907;SDS011;23740;51.550;6.846;2024-02-16T00:25:25;2.50;;;1.35;;
37907;SDS011;23740;51.550;6.846;2024-02-16T00:27:52;3.83;;;1.40;;
37907;SDS011;23740;51.550;6.846;2024-02-16T00:30:19;2.38;;;1.25;;
37907;SDS011;23740;51.550;6.846;2024-02-16T00:32:46;1.95;;;1.65;;
37907;SDS011;23740;51.550;6.846;2024-02-16T00:35:14;2.90;;;1.75;;
37907;SDS011;23740;51.550;6.846;2024-02-16T00:37:42;4.18;;;1.65;;
37907;SDS011;23740;51.550;6.846;2024-02-16T00:42:35;1.63;;;1.52;;
37907;SDS011;23740;51.550;6.846;2024-02-16T00:47:29;1.20;;;1.10;;
37907;SDS011;23740;51.550;6.846;2024-02-16T00:49:56;3.22;;;1.50;;
37907;SDS011;23740;51.550;6.846;2024-02-16T00:52:24;2.25;;;1.20;;
37907;SDS011;23740;51.550;6.846;2024-02-16T00:57:17;2.95;;;1.55;;
37907;SDS011;23740;51.550;6.846;2024-02-16T01:02:10;3.13;;;2.15;;
37907;SDS011;23740;51.550;6.846;2024-02-16T01:04:37;1.85;;;1.75;;
37907;SDS011;23740;51.550;6.846;2024-02-16T01:07:04;1.88;;;1.48;;
37907;SDS011;23740;51.550;6.846;2024-02-16T01:09:31;1.52;;;1.35;;
37907;SDS011;23740;51.550;6.846;2024-02-16T01:14:23;2.13;;;1.60;;
37907;SDS011;23740;51.550;6.846;2024-02-16T01:19:16;3.10;;;1.60;;
37907;SDS011;23740;51.550;6.846;2024-02-16T01:21:43;1.67;;;1.58;;
37907;SDS011;23740;51.550;6.846;2024-02-16T01:24:13;4.20;;;1.67;;
37907;SDS011;23740;51.550;6.846;2024-02-16T01:26:40;2.72;;;1.63;;
37907;SDS011;23740;51.550;6.846;2024-02-16T01:29:06;1.48;;;1.30;;
37907;SDS011;23740;51.550;6.846;2024-02-16T01:31:32;2.60;;;1.60;;
37907;SDS011;23740;51.550;6.846;2024-02-16T01:33:59;3.50;;;1.60;;
37907;SDS011;23740;51.550;6.846;2024-02-16T01:36:26;2.22;;;1.33;;
37907;SDS011;23740;51.550;6.846;2024-02-16T01:41:19;3.45;;;1.58;;
37907;SDS011;23740;51.550;6.846;2024-02-16T01:43:46;2.20;;;1.42;;
37907;SDS011;23740;51.550;6.846;2024-02-16T01:46:12;1.88;;;1.42;;
37907;SDS011;23740;51.550;6.846;2024-02-16T01:48:38;2.90;;;2.08;;
37907;SDS011;23740;51.550;6.846;2024-02-16T01:53:32;2.40;;;1.95;;
37907;SDS011;23740;51.550;6.846;2024-02-16T01:55:59;2.90;;;1.52;;
37907;SDS011;23740;51.550;6.846;2024-02-16T01:58:26;4.38;;;1.30;;
37907;SDS011;23740;51.550;6.846;2024-02-16T02:00:53;2.80;;;1.63;;
37907;SDS011;23740;51.550;6.846;2024-02-16T02:03:20;3.28;;;1.73;;
37907;SDS011;23740;51.550;6.846;2024-02-16T02:05:48;2.88;;;1.92;;
37907;SDS011;23740;51.550;6.846;2024-02-16T02:08:15;3.45;;;2.33;;
37907;SDS011;23740;51.550;6.846;2024-02-16T02:10:42;2.53;;;2.30;;
37907;SDS011;23740;51.550;6.846;2024-02-16T02:13:09;2.85;;;2.00;;
37907;SDS011;23740;51.550;6.846;2024-02-16T02:15:36;2.05;;;1.70;;
37907;SDS011;23740;51.550;6.846;2024-02-16T02:18:04;3.15;;;1.85;;
37907;SDS011;23740;51.550;6.846;2024-02-16T02:20:32;1.77;;;1.33;;
37907;SDS011;23740;51.550;6.846;2024-02-16T02:23:00;1.80;;;1.67;;
37907;SDS011;23740;51.550;6.846;2024-02-16T02:25:26;2.13;;;1.90;;
37907;SDS011;23740;51.550;6.846;2024-02-16T02:27:54;2.15;;;1.20;;
37907;SDS011;23740;51.550;6.846;2024-02-16T02:32:47;2.08;;;1.88;;
37907;SDS011;23740;51.550;6.846;2024-02-16T02:35:16;3.60;;;1.85;;
37907;SDS011;23740;51.550;6.846;2024-02-16T02:37:43;3.20;;;1.75;;
37907;SDS011;23740;51.550;6.846;2024-02-16T02:40:10;3.03;;;1.60;;
37907;SDS011;23740;51.550;6.846;2024-02-16T02:42:37;1.45;;;1.35;;
37907;SDS011;23740;51.550;6.846;2024-02-16T02:45:04;2.13;;;1.90;;
37907;SDS011;23740;51.550;6.846;2024-02-16T02:47:32;1.77;;;1.58;;
37907;SDS011;23740;51.550;6.846;2024-02-16T02:52:25;2.55;;;1.60;;
37907;SDS011;23740;51.550;6.846;2024-02-16T02:57:18;1.50;;;1.40;;
37907;SDS011;23740;51.550;6.846;2024-02-16T02:59:44;2.10;;;1.60;;
37907;SDS011;23740;51.550;6.846;2024-02-16T03:02:11;1.73;;;1.33;;
37907;SDS011;23740;51.550;6.846;2024-02-16T03:04:37;1.85;;;1.30;;
37907;SDS011;23740;51.550;6.846;2024-02-16T03:09:30;2.28;;;1.80;;
37907;SDS011;23740;51.550;6.846;2024-02-16T03:14:24;1.90;;;1.70;;
37907;SDS011;23740;51.550;6.846;2024-02-16T03:16:50;2.65;;;1.52;;
37907;SDS011;23740;51.550;6.846;2024-02-16T03:19:17;3.83;;;1.50;;
37907;SDS011;23740;51.550;6.846;2024-02-16T03:21:43;2.45;;;1.50;;
37907;SDS011;23740;51.550;6.846;2024-02-16T03:24:13;2.58;;;1.30;;
37907;SDS011;23740;51.550;6.846;2024-02-16T03:26:39;3.53;;;1.55;;
37907;SDS011;23740;51.550;6.846;2024-02-16T03:29:05;3.10;;;1.67;;
37907;SDS011;23740;51.550;6.846;2024-02-16T03:31:33;3.78;;;1.75;;
37907;SDS011;23740;51.550;6.846;2024-02-16T03:34:00;2.92;;;1.95;;
37907;SDS011;23740;51.550;6.846;2024-02-16T03:36:27;2.42;;;1.95;;
37907;SDS011;23740;51.550;6.846;2024-02-16T03:38:55;2.85;;;1.92;;
37907;SDS011;23740;51.550;6.846;2024-02-16T03:41:22;2.05;;;1.65;;
37907;SDS011;23740;51.550;6.846;2024-02-16T03:43:49;2.50;;;1.63;;
37907;SDS011;23740;51.550;6.846;2024-02-16T03:46:17;1.88;;;1.40;;
37907;SDS011;23740;51.550;6.846;2024-02-16T03:51:10;2.13;;;1.52;;
37907;SDS011;23740;51.550;6.846;2024-02-16T03:53:37;2.20;;;2.00;;
37907;SDS011;23740;51.550;6.846;2024-02-16T03:56:04;2.40;;;2.22;;
37907;SDS011;23740;51.550;6.846;2024-02-16T03:58:31;5.10;;;2.17;;
37907;SDS011;23740;51.550;6.846;2024-02-16T04:00:58;2.70;;;2.20;;
37907;SDS011;23740;51.550;6.846;2024-02-16T04:05:51;2.80;;;1.48;;
37907;SDS011;23740;51.550;6.846;2024-02-16T04:08:18;1.55;;;1.40;;
37907;SDS011;23740;51.550;6.846;2024-02-16T04:13:11;2.50;;;1.80;;
37907;SDS011;23740;51.550;6.846;2024-02-16T04:15:37;2.55;;;1.70;;
37907;SDS011;23740;51.550;6.846;2024-02-16T04:18:04;2.67;;;1.75;;
37907;SDS011;23740;51.550;6.846;2024-02-16T04:20:32;3.20;;;1.60;;
37907;SDS011;23740;51.550;6.846;2024-02-16T04:25:25;4.85;;;1.70;;
37907;SDS011;23740;51.550;6.846;2024-02-16T04:30:19;2.40;;;1.52;;
37907;SDS011;23740;51.550;6.846;2024-02-16T04:35:11;4.20;;;1.48;;
37907;SDS011;23740;51.550;6.846;2024-02-16T04:37:38;2.25;;;1.75;;
37907;SDS011;23740;51.550;6.846;2024-02-16T04:42:33;2.65;;;1.67;;
37907;SDS011;23740;51.550;6.846;2024-02-16T04:47:31;2.13;;;1.92;;
37907;SDS011;23740;51.550;6.846;2024-02-16T04:52:24;2.15;;;1.55;;
37907;SDS011;23740;51.550;6.846;2024-02-16T04:54:55;2.17;;;1.23;;
37907;SDS011;23740;51.550;6.846;2024-02-16T04:57:22;1.88;;;1.73;;
37907;SDS011;23740;51.550;6.846;2024-02-16T04:59:49;2.00;;;1.80;;
37907;SDS011;23740;51.550;6.846;2024-02-16T05:04:42;1.98;;;1.65;;
37907;SDS011;23740;51.550;6.846;2024-02-16T05:09:35;3.00;;;2.22;;
37907;SDS011;23740;51.550;6.846;2024-02-16T05:14:29;3.72;;;1.90;;
37907;SDS011;23740;51.550;6.846;2024-02-16T05:16:55;2.60;;;1.50;;
37907;SDS011;23740;51.550;6.846;2024-02-16T05:19:25;4.30;;;2.25;;
37907;SDS011;23740;51.550;6.846;2024-02-16T05:21:51;1.83;;;1.73;;
37907;SDS011;23740;51.550;6.846;2024-02-16T05:26:44;3.75;;;1.33;;
37907;SDS011;23740;51.550;6.846;2024-02-16T05:29:11;3.30;;;1.90;;
37907;SDS011;23740;51.550;6.846;2024-02-16T05:34:04;7.05;;;2.65;;
37907;SDS011;23740;51.550;6.846;2024-02-16T05:36:31;3.67;;;2.25;;
37907;SDS011;23740;51.550;6.846;2024-02-16T05:39:01;2.20;;;1.63;;
37907;SDS011;23740;51.550;6.846;2024-02-16T05:41:45;6.60;;;2.15;;
37907;SDS011;23740;51.550;6.846;2024-02-16T05:46:39;2.53;;;2.10;;
37907;SDS011;23740;51.550;6.846;2024-02-16T05:49:05;4.95;;;2.13;;
37907;SDS011;23740;51.550;6.846;2024-02-16T05:51:34;2.83;;;2.58;;
37907;SDS011;23740;51.550;6.846;2024-02-16T05:54:00;2.60;;;1.73;;
37907;SDS011;23740;51.550;6.846;2024-02-16T05:56:27;3.40;;;1.63;;
37907;SDS011;23740;51.550;6.846;2024-02-16T06:01:20;2.58;;;2.00;;
37907;SDS011;23740;51.550;6.846;2024-02-16T06:06:14;3.08;;;1.95;;
37907;SDS011;23740;51.550;6.846;2024-02-16T06:08:40;3.33;;;2.20;;
37907;SDS011;23740;51.550;6.846;2024-02-16T06:13:33;3.30;;;1.92;;
37907;SDS011;23740;51.550;6.846;2024-02-16T06:15:59;2.88;;;1.98;;
37907;SDS011;23740;51.550;6.846;2024-02-16T06:18:26;3.67;;;2.13;;
37907;SDS011;23740;51.550;6.846;2024-02-16T06:20:55;2.17;;;1.95;;
37907;SDS011;23740;51.550;6.846;2024-02-16T06:23:22;2.15;;;1.52;;
37907;SDS011;23740;51.550;6.846;2024-02-16T06:25:49;2.28;;;2.08;;
37907;SDS011;23740;51.550;6.846;2024-02-16T06:28:16;3.05;;;2.20;;
37907;SDS011;23740;51.550;6.846;2024-02-16T06:30:42;4.22;;;1.85;;
37907;SDS011;23740;51.550;6.846;2024-02-16T06:35:36;2.58;;;2.08;;
37907;SDS011;23740;51.550;6.846;2024-02-16T06:40:31;1.85;;;1.63;;
37907;SDS011;23740;51.550;6.846;2024-02-16T06:45:23;5.32;;;1.95;;
37907;SDS011;23740;51.550;6.846;2024-02-16T06:47:51;2.67;;;2.00;;
37907;SDS011;23740;51.550;6.846;2024-02-16T06:50:18;3.80;;;2.30;;
37907;SDS011;23740;51.550;6.846;2024-02-16T06:55:11;3.50;;;2.05;;
37907;SDS011;23740;51.550;6.846;2024-02-16T06:57:37;2.85;;;2.05;;
37907;SDS011;23740;51.550;6.846;2024-02-16T07:02:31;5.38;;;2.53;;
37907;SDS011;23740;51.550;6.846;2024-02-16T07:04:58;3.22;;;1.85;;
37907;SDS011;23740;51.550;6.846;2024-02-16T07:07:24;2.33;;;1.80;;
37907;SDS011;23740;51.550;6.846;2024-02-16T07:09:51;2.47;;;2.13;;
37907;SDS011;23740;51.550;6.846;2024-02-16T07:14:44;2.95;;;2.38;;
37907;SDS011;23740;51.550;6.846;2024-02-16T07:17:12;2.80;;;1.88;;
37907;SDS011;23740;51.550;6.846;2024-02-16T07:19:39;3.30;;;1.88;;
37907;SDS011;23740;51.550;6.846;2024-02-16T07:22:06;2.70;;;1.95;;
37907;SDS011;23740;51.550;6.846;2024-02-16T07:24:33;3.70;;;2.30;;
37907;SDS011;23740;51.550;6.846;2024-02-16T07:27:00;1.80;;;1.70;;
37907;SDS011;23740;51.550;6.846;2024-02-16T07:29:28;2.33;;;1.92;;
37907;SDS011;23740;51.550;6.846;2024-02-16T07:31:54;3.92;;;2.28;;
37907;SDS011;23740;51.550;6.846;2024-02-16T07:34:21;3.53;;;2.00;;
37907;SDS011;23740;51.550;6.846;2024-02-16T07:36:49;3.33;;;1.85;;
37907;SDS011;23740;51.550;6.846;2024-02-16T07:39:15;3.10;;;1.80;;
37907;SDS011;23740;51.550;6.846;2024-02-16T07:41:42;2.03;;;1.65;;
37907;SDS011;23740;51.550;6.846;2024-02-16T07:44:08;2.42;;;1.77;;
37907;SDS011;23740;51.550;6.846;2024-02-16T07:46:40;2.35;;;1.83;;
37907;SDS011;23740;51.550;6.846;2024-02-16T07:49:06;2.35;;;2.03;;
37907;SDS011;23740;51.550;6.846;2024-02-16T07:51:33;2.33;;;1.95;;
37907;SDS011;23740;51.550;6.846;2024-02-16T07:53:59;2.13;;;1.90;;
37907;SDS011;23740;51.550;6.846;2024-02-16T07:56:26;2.88;;;2.17;;
37907;SDS011;23740;51.550;6.846;2024-02-16T07:58:53;3.95;;;1.90;;
37907;SDS011;23740;51.550;6.846;2024-02-16T08:01:21;2.53;;;2.25;;
37907;SDS011;23740;51.550;6.846;2024-02-16T08:03:48;1.98;;;1.83;;
37907;SDS011;23740;51.550;6.846;2024-02-16T08:06:15;4.72;;;2.20;;
37907;SDS011;23740;51.550;6.846;2024-02-16T08:08:42;3.95;;;2.75;;
37907;SDS011;23740;51.550;6.846;2024-02-16T08:13:34;2.88;;;1.85;;
37907;SDS011;23740;51.550;6.846;2024-02-16T08:16:01;2.20;;;1.80;;
37907;SDS011;23740;51.550;6.846;2024-02-16T08:18:32;2.30;;;2.10;;
37907;SDS011;23740;51.550;6.846;2024-02-16T08:20:59;4.40;;;2.13;;
37907;SDS011;23740;51.550;6.846;2024-02-16T08:23:26;2.22;;;1.98;;
37907;SDS011;23740;51.550;6.846;2024-02-16T08:25:53;2.53;;;2.28;;
37907;SDS011;23740;51.550;6.846;2024-02-16T08:30:45;2.17;;;1.73;;
37907;SDS011;23740;51.550;6.846;2024-02-16T08:33:12;4.40;;;2.35;;
37907;SDS011;23740;51.550;6.846;2024-02-16T08:35:38;5.60;;;2.30;;
37907;SDS011;23740;51.550;6.846;2024-02-16T08:40:36;2.92;;;1.77;;
37907;SDS011;23740;51.550;6.846;2024-02-16T08:43:02;2.83;;;1.88;;
37907;SDS011;23740;51.550;6.846;2024-02-16T08:45:29;4.60;;;1.85;;
37907;SDS011;23740;51.550;6.846;2024-02-16T08:50:22;4.03;;;2.58;;
37907;SDS011;23740;51.550;6.846;2024-02-16T08:52:50;2.35;;;2.15;;
37907;SDS011;23740;51.550;6.846;2024-02-16T08:55:18;3.25;;;2.33;;
37907;SDS011;23740;51.550;6.846;2024-02-16T08:57:44;3.67;;;2.47;;
37907;SDS011;23740;51.550;6.846;2024-02-16T09:00:11;3.00;;;2.35;;
37907;SDS011;23740;51.550;6.846;2024-02-16T09:02:39;2.92;;;2.20;;
37907;SDS011;23740;51.550;6.846;2024-02-16T09:07:32;3.97;;;1.95;;
37907;SDS011;23740;51.550;6.846;2024-02-16T09:09:58;2.42;;;1.58;;
37907;SDS011;23740;51.550;6.846;2024-02-16T09:12:25;2.42;;;2.20;;
37907;SDS011;23740;51.550;6.846;2024-02-16T09:14:52;4.15;;;2.80;;
37907;SDS011;23740;51.550;6.846;2024-02-16T09:17:19;4.18;;;1.52;;
37907;SDS011;23740;51.550;6.846;2024-02-16T09:19:46;3.92;;;2.40;;
37907;SDS011;23740;51.550;6.846;2024-02-16T09:22:13;3.28;;;2.40;;
37907;SDS011;23740;51.550;6.846;2024-02-16T09:27:06;4.28;;;2.60;;
37907;SDS011;23740;51.550;6.846;2024-02-16T09:29:36;2.75;;;1.88;;
37907;SDS011;23740;51.550;6.846;2024-02-16T09:32:02;2.83;;;2.22;;
37907;SDS011;23740;51.550;6.846;2024-02-16T09:34:29;5.63;;;2.60;;
37907;SDS011;23740;51.550;6.846;2024-02-16T09:36:56;3.70;;;2.72;;
37907;SDS011;23740;51.550;6.846;2024-02-16T09:41:50;3.33;;;2.25;;
37907;SDS011;23740;51.550;6.846;2024-02-16T09:44:17;2.92;;;2.28;;
37907;SDS011;23740;51.550;6.846;2024-02-16T09:46:45;3.20;;;2.00;;
37907;SDS011;23740;51.550;6.846;2024-02-16T09:49:13;2.53;;;2.33;;
37907;SDS011;23740;51.550;6.846;2024-02-16T09:51:39;5.97;;;2.40;;
37907;SDS011;23740;51.550;6.846;2024-02-16T09:54:06;4.85;;;2.33;;
37907;SDS011;23740;51.550;6.846;2024-02-16T09:56:33;5.65;;;2.75;;
37907;SDS011;23740;51.550;6.846;2024-02-16T10:01:26;3.33;;;2.72;;
37907;SDS011;23740;51.550;6.846;2024-02-16T10:04:00;3.05;;;2.40;;
37907;SDS011;23740;51.550;6.846;2024-02-16T10:06:31;5.78;;;3.33;;
37907;SDS011;23740;51.550;6.846;2024-02-16T10:08:58;2.70;;;2.20;;
37907;SDS011;23740;51.550;6.846;2024-02-16T10:11:25;7.30;;;2.40;;
37907;SDS011;23740;51.550;6.846;2024-02-16T10:13:56;6.28;;;2.38;;
37907;SDS011;23740;51.550;6.846;2024-02-16T10:16:23;3.47;;;2.40;;
37907;SDS011;23740;51.550;6.846;2024-02-16T10:18:50;3.60;;;2.78;;
37907;SDS011;23740;51.550;6.846;2024-02-16T10:21:26;3.97;;;2.47;;
37907;SDS011;23740;51.550;6.846;2024-02-16T10:23:57;4.32;;;2.92;;
37907;SDS011;23740;51.550;6.846;2024-02-16T10:26:25;8.75;;;3.10;;
37907;SDS011;23740;51.550;6.846;2024-02-16T10:28:52;3.72;;;3.30;;
37907;SDS011;23740;51.550;6.846;2024-02-16T10:31:23;4.88;;;2.55;;
37907;SDS011;23740;51.550;6.846;2024-02-16T10:33:58;4.05;;;2.92;;
37907;SDS011;23740;51.550;6.846;2024-02-16T10:36:26;4.22;;;2.63;;
37907;SDS011;23740;51.550;6.846;2024-02-16T10:38:54;4.22;;;2.38;;
37907;SDS011;23740;51.550;6.846;2024-02-16T10:41:22;6.07;;;2.85;;
37907;SDS011;23740;51.550;6.846;2024-02-16T10:43:53;5.43;;;2.65;;
37907;SDS011;23740;51.550;6.846;2024-02-16T10:46:20;5.53;;;3.05;;
37907;SDS011;23740;51.550;6.846;2024-02-16T10:48:46;5.40;;;3.15;;
37907;SDS011;23740;51.550;6.846;2024-02-16T10:51:14;7.22;;;3.00;;
37907;SDS011;23740;51.550;6.846;2024-02-16T10:53:42;5.18;;;2.17;;
37907;SDS011;23740;51.550;6.846;2024-02-16T10:56:08;4.15;;;2.67;;
37907;SDS011;23740;51.550;6.846;2024-02-16T10:58:35;5.80;;;3.10;;
37907;SDS011;23740;51.550;6.846;2024-02-16T11:01:07;4.03;;;2.38;;
37907;SDS011;23740;51.550;6.846;2024-02-16T11:03:37;3.75;;;2.85;;
37907;SDS011;23740;51.550;6.846;2024-02-16T11:06:11;4.55;;;2.80;;
37907;SDS011;23740;51.550;6.846;2024-02-16T11:08:42;4.53;;;2.72;;
37907;SDS011;23740;51.550;6.846;2024-02-16T11:11:08;4.05;;;2.80;;
37907;SDS011;23740;51.550;6.846;2024-02-16T11:13:37;6.88;;;3.53;;
37907;SDS011;23740;51.550;6.846;2024-02-16T11:16:06;3.70;;;2.85;;
37907;SDS011;23740;51.550;6.846;2024-02-16T11:18:36;2.67;;;2.47;;
37907;SDS011;23740;51.550;6.846;2024-02-16T11:21:04;4.82;;;2.45;;
37907;SDS011;23740;51.550;6.846;2024-02-16T11:23:34;4.43;;;2.40;;
37907;SDS011;23740;51.550;6.846;2024-02-16T11:26:02;4.70;;;2.75;;
37907;SDS011;23740;51.550;6.846;2024-02-16T11:28:32;3.92;;;2.70;;
37907;SDS011;23740;51.550;6.846;2024-02-16T11:30:59;6.32;;;3.28;;
37907;SDS011;23740;51.550;6.846;2024-02-16T11:33:27;8.45;;;2.50;;
37907;SDS011;23740;51.550;6.846;2024-02-16T11:35:55;7.30;;;2.90;;
37907;SDS011;23740;51.550;6.846;2024-02-16T11:38:22;6.50;;;2.63;;
37907;SDS011;23740;51.550;6.846;2024-02-16T11:40:52;5.30;;;3.30;;
37907;SDS011;23740;51.550;6.846;2024-02-16T11:43:21;5.80;;;3.25;;
37907;SDS011;23740;51.550;6.846;2024-02-16T11:45:47;4.03;;;2.90;;
37907;SDS011;23740;51.550;6.846;2024-02-16T11:48:18;6.55;;;3.25;;
37907;SDS011;23740;51.550;6.846;2024-02-16T11:50:46;4.32;;;3.28;;
37907;SDS011;23740;51.550;6.846;2024-02-16T11:53:14;5.60;;;3.78;;
37907;SDS011;23740;51.550;6.846;2024-02-16T11:55:45;6.03;;;3.78;;
37907;SDS011;23740;51.550;6.846;2024-02-16T11:58:12;6.32;;;4.00;;
37907;SDS011;23740;51.550;6.846;2024-02-16T12:00:40;7.35;;;3.65;;
37907;SDS011;23740;51.550;6.846;2024-02-16T12:03:06;4.15;;;2.67;;
37907;SDS011;23740;51.550;6.846;2024-02-16T12:05:33;7.70;;;4.07;;
37907;SDS011;23740;51.550;6.846;2024-02-16T12:08:00;5.75;;;3.70;;
37907;SDS011;23740;51.550;6.846;2024-02-16T12:10:29;8.63;;;4.07;;
37907;SDS011;23740;51.550;6.846;2024-02-16T12:15:26;6.45;;;3.88;;
37907;SDS011;23740;51.550;6.846;2024-02-16T12:20:27;8.20;;;3.80;;
37907;SDS011;23740;51.550;6.846;2024-02-16T12:22:54;5.93;;;3.78;;
37907;SDS011;23740;51.550;6.846;2024-02-16T12:25:20;7.47;;;3.90;;
37907;SDS011;23740;51.550;6.846;2024-02-16T12:32:40;8.82;;;3.08;;
37907;SDS011;23740;51.550;6.846;2024-02-16T12:35:08;5.90;;;5.18;;
37907;SDS011;23740;51.550;6.846;2024-02-16T12:37:35;6.97;;;4.20;;
37907;SDS011;23740;51.550;6.846;2024-02-16T12:40:03;7.15;;;4.20;;
37907;SDS011;23740;51.550;6.846;2024-02-16T12:42:31;5.38;;;4.20;;
37907;SDS011;23740;51.550;6.846;2024-02-16T12:49:51;6.30;;;3.58;;
37907;SDS011;23740;51.550;6.846;2024-02-16T12:52:20;8.80;;;3.97;;
37907;SDS011;23740;51.550;6.846;2024-02-16T12:54:48;6.20;;;4.50;;
37907;SDS011;23740;51.550;6.846;2024-02-16T12:57:14;8.30;;;4.88;;
37907;SDS011;23740;51.550;6.846;2024-02-16T12:59:41;8.05;;;4.78;;
37907;SDS011;23740;51.550;6.846;2024-02-16T13:04:34;9.23;;;4.47;;
37907;SDS011;23740;51.550;6.846;2024-02-16T13:07:00;8.07;;;4.75;;
37907;SDS011;23740;51.550;6.846;2024-02-16T13:09:27;6.32;;;4.10;;
37907;SDS011;23740;51.550;6.846;2024-02-16T13:11:54;7.47;;;4.80;;
37907;SDS011;23740;51.550;6.846;2024-02-16T13:14:21;7.43;;;5.43;;
37907;SDS011;23740;51.550;6.846;2024-02-16T13:16:48;9.57;;;4.97;;
37907;SDS011;23740;51.550;6.846;2024-02-16T13:19:14;7.68;;;4.50;;
37907;SDS011;23740;51.550;6.846;2024-02-16T13:21:43;9.25;;;4.55;;
37907;SDS011;23740;51.550;6.846;2024-02-16T13:24:10;7.53;;;4.65;;
37907;SDS011;23740;51.550;6.846;2024-02-16T13:26:38;8.43;;;4.55;;
37907;SDS011;23740;51.550;6.846;2024-02-16T13:29:04;10.13;;;5.20;;
37907;SDS011;23740;51.550;6.846;2024-02-16T13:31:31;7.55;;;4.57;;
37907;SDS011;23740;51.550;6.846;2024-02-16T13:33:59;8.40;;;5.20;;
37907;SDS011;23740;51.550;6.846;2024-02-16T13:36:28;10.27;;;5.40;;
37907;SDS011;23740;51.550;6.846;2024-02-16T13:41:20;9.68;;;5.35;;
37907;SDS011;23740;51.550;6.846;2024-02-16T13:43:48;7.43;;;5.03;;
37907;SDS011;23740;51.550;6.846;2024-02-16T13:46:14;7.72;;;5.22;;
37907;SDS011;23740;51.550;6.846;2024-02-16T13:48:41;10.35;;;5.75;;
37907;SDS011;23740;51.550;6.846;2024-02-16T13:51:08;8.48;;;5.18;;
37907;SDS011;23740;51.550;6.846;2024-02-16T13:56:01;7.25;;;4.50;;
37907;SDS011;23740;51.550;6.846;2024-02-16T13:58:29;7.25;;;5.78;;
37907;SDS011;23740;51.550;6.846;2024-02-16T14:03:23;6.53;;;4.93;;
37907;SDS011;23740;51.550;6.846;2024-02-16T14:05:50;9.50;;;6.15;;
37907;SDS011;23740;51.550;6.846;2024-02-16T14:08:17;8.18;;;5.60;;
37907;SDS011;23740;51.550;6.846;2024-02-16T14:10:43;9.38;;;7.05;;
37907;SDS011;23740;51.550;6.846;2024-02-16T14:15:36;9.60;;;5.68;;
37907;SDS011;23740;51.550;6.846;2024-02-16T14:20:39;10.57;;;5.78;;
37907;SDS011;23740;51.550;6.846;2024-02-16T14:25:35;8.77;;;5.22;;
37907;SDS011;23740;51.550;6.846;2024-02-16T14:28:03;7.50;;;5.88;;
37907;SDS011;23740;51.550;6.846;2024-02-16T14:30:30;7.57;;;5.50;;
37907;SDS011;23740;51.550;6.846;2024-02-16T14:32:58;8.38;;;5.47;;
37907;SDS011;23740;51.550;6.846;2024-02-16T14:35:25;7.80;;;5.07;;
37907;SDS011;23740;51.550;6.846;2024-02-16T14:37:51;7.47;;;5.63;;
37907;SDS011;23740;51.550;6.846;2024-02-16T14:42:46;6.82;;;4.57;;
37907;SDS011;23740;51.550;6.846;2024-02-16T14:45:13;8.45;;;4.80;;
37907;SDS011;23740;51.550;6.846;2024-02-16T14:47:44;9.13;;;5.25;;
37907;SDS011;23740;51.550;6.846;2024-02-16T14:50:11;6.85;;;5.15;;
37907;SDS011;23740;51.550;6.846;2024-02-16T14:52:39;8.55;;;5.22;;
37907;SDS011;23740;51.550;6.846;2024-02-16T14:55:06;7.97;;;5.25;;
37907;SDS011;23740;51.550;6.846;2024-02-16T14:57:35;8.60;;;5.28;;
37907;SDS011;23740;51.550;6.846;2024-02-16T15:00:03;8.30;;;4.88;;
37907;SDS011;23740;51.550;6.846;2024-02-16T15:02:30;7.65;;;5.78;;
37907;SDS011;23740;51.550;6.846;2024-02-16T15:04:56;5.85;;;5.00;;
37907;SDS011;23740;51.550;6.846;2024-02-16T15:07:23;7.47;;;5.65;;
37907;SDS011;23740;51.550;6.846;2024-02-16T15:09:50;5.35;;;4.82;;
37907;SDS011;23740;51.550;6.846;2024-02-16T15:12:17;6.30;;;4.55;;
37907;SDS011;23740;51.550;6.846;2024-02-16T15:14:45;6.88;;;4.75;;
37907;SDS011;23740;51.550;6.846;2024-02-16T15:17:12;6.43;;;4.60;;
37907;SDS011;23740;51.550;6.846;2024-02-16T15:19:39;6.50;;;4.88;;
37907;SDS011;23740;51.550;6.846;2024-02-16T15:22:05;5.70;;;5.07;;
37907;SDS011;23740;51.550;6.846;2024-02-16T15:24:32;7.32;;;3.92;;
37907;SDS011;23740;51.550;6.846;2024-02-16T15:26:59;8.23;;;5.05;;
37907;SDS011;23740;51.550;6.846;2024-02-16T15:29:27;6.45;;;4.53;;
37907;SDS011;23740;51.550;6.846;2024-02-16T15:31:53;10.98;;;5.22;;
37907;SDS011;23740;51.550;6.846;2024-02-16T15:34:21;6.85;;;4.72;;
37907;SDS011;23740;51.550;6.846;2024-02-16T15:36:47;6.32;;;5.30;;
37907;SDS011;23740;51.550;6.846;2024-02-16T15:39:14;5.82;;;4.70;;
37907;SDS011;23740;51.550;6.846;2024-02-16T15:41:41;4.90;;;4.45;;
37907;SDS011;23740;51.550;6.846;2024-02-16T15:44:08;6.10;;;4.28;;
37907;SDS011;23740;51.550;6.846;2024-02-16T15:46:37;5.60;;;4.47;;
37907;SDS011;23740;51.550;6.846;2024-02-16T15:49:07;5.63;;;4.72;;
37907;SDS011;23740;51.550;6.846;2024-02-16T15:51:33;5.70;;;4.68;;
37907;SDS011;23740;51.550;6.846;2024-02-16T15:56:27;6.88;;;4.70;;
37907;SDS011;23740;51.550;6.846;2024-02-16T16:01:25;7.13;;;4.82;;
37907;SDS011;23740;51.550;6.846;2024-02-16T16:03:52;6.78;;;5.38;;
37907;SDS011;23740;51.550;6.846;2024-02-16T16:06:19;8.60;;;4.97;;
37907;SDS011;23740;51.550;6.846;2024-02-16T16:08:46;6.32;;;5.50;;
37907;SDS011;23740;51.550;6.846;2024-02-16T16:13:39;8.75;;;5.47;;
37907;SDS011;23740;51.550;6.846;2024-02-16T16:16:06;7.20;;;5.28;;
37907;SDS011;23740;51.550;6.846;2024-02-16T16:18:34;7.45;;;5.43;;
37907;SDS011;23740;51.550;6.846;2024-02-16T16:21:01;10.50;;;6.57;;
37907;SDS011;23740;51.550;6.846;2024-02-16T16:23:28;6.40;;;4.97;;
37907;SDS011;23740;51.550;6.846;2024-02-16T16:25:55;8.27;;;5.03;;
37907;SDS011;23740;51.550;6.846;2024-02-16T16:28:25;8.40;;;5.32;;
37907;SDS011;23740;51.550;6.846;2024-02-16T16:30:52;6.95;;;5.07;;
37907;SDS011;23740;51.550;6.846;2024-02-16T16:33:18;8.55;;;4.53;;
37907;SDS011;23740;51.550;6.846;2024-02-16T16:35:46;14.95;;;7.30;;
37907;SDS011;23740;51.550;6.846;2024-02-16T16:38:12;7.70;;;4.57;;
37907;SDS011;23740;51.550;6.846;2024-02-16T16:40:39;4.60;;;4.03;;
37907;SDS011;23740;51.550;6.846;2024-02-16T16:43:05;13.98;;;6.32;;
37907;SDS011;23740;51.550;6.846;2024-02-16T16:47:58;6.43;;;4.00;;
37907;SDS011;23740;51.550;6.846;2024-02-16T16:50:27;5.10;;;3.63;;
37907;SDS011;23740;51.550;6.846;2024-02-16T16:55:21;5.70;;;4.43;;
37907;SDS011;23740;51.550;6.846;2024-02-16T17:00:14;4.15;;;3.40;;
37907;SDS011;23740;51.550;6.846;2024-02-16T17:02:41;4.88;;;3.70;;
37907;SDS011;23740;51.550;6.846;2024-02-16T17:07:34;3.38;;;2.47;;
37907;SDS011;23740;51.550;6.846;2024-02-16T17:12:27;5.22;;;2.47;;
37907;SDS011;23740;51.550;6.846;2024-02-16T17:17:20;5.40;;;3.28;;
37907;SDS011;23740;51.550;6.846;2024-02-16T17:19:48;4.75;;;2.90;;
37907;SDS011;23740;51.550;6.846;2024-02-16T17:22:14;5.85;;;3.35;;
37907;SDS011;23740;51.550;6.846;2024-02-16T17:27:08;4.70;;;3.63;;
37907;SDS011;23740;51.550;6.846;2024-02-16T17:29:36;4.88;;;3.55;;
37907;SDS011;23740;51.550;6.846;2024-02-16T17:32:02;12.52;;;4.82;;
37907;SDS011;23740;51.550;6.846;2024-02-16T17:34:30;6.13;;;3.97;;
37907;SDS011;23740;51.550;6.846;2024-02-16T17:37:00;5.25;;;3.97;;
37907;SDS011;23740;51.550;6.846;2024-02-16T17:39:26;5.10;;;4.25;;